createdAt,value
2022-12-19T00:01:19.982Z,-1.60
2022-12-19T00:03:48.180Z,-1.70
2022-12-19T00:06:16.046Z,-1.80
2022-12-19T00:08:44.583Z,-1.80
2022-12-19T00:11:13.425Z,-1.80
2022-12-19T00:13:41.494Z,-1.80
2022-12-19T00:16:11.135Z,-1.80
2022-12-19T00:18:41.748Z,-1.80
2022-12-19T00:21:11.237Z,-1.80
2022-12-19T00:23:37.955Z,-1.80
2022-12-19T00:26:12.426Z,-1.70
2022-12-19T00:28:42.405Z,-1.70
2022-12-19T00:31:09.944Z,-1.70
2022-12-19T00:33:43.725Z,-1.60
2022-12-19T00:36:21.797Z,-1.60
2022-12-19T00:38:53.967Z,-1.70
2022-12-19T00:41:23.116Z,-1.70
2022-12-19T00:43:55.575Z,-1.60
2022-12-19T00:46:22.712Z,-1.60
2022-12-19T00:48:49.512Z,-1.60
2022-12-19T00:51:19.348Z,-1.50
2022-12-19T00:53:47.455Z,-1.60
2022-12-19T00:56:20.126Z,-1.60
2022-12-19T00:58:47.624Z,-1.50
2022-12-19T01:01:16.252Z,-1.50
2022-12-19T01:04:18.826Z,-1.40
2022-12-19T01:06:34.916Z,-1.40
2022-12-19T01:09:01.693Z,-1.30
2022-12-19T01:11:28.425Z,-1.30
2022-12-19T01:13:55.244Z,-1.30
2022-12-19T01:16:21.993Z,-1.30
2022-12-19T01:18:49.559Z,-1.20
2022-12-19T01:21:18.240Z,-1.20
2022-12-19T01:23:49.241Z,-1.10
2022-12-19T01:26:15.952Z,-1.10
2022-12-19T01:28:42.705Z,-1.10
2022-12-19T01:31:09.418Z,-1.10
2022-12-19T01:33:44.058Z,-1.00
2022-12-19T01:36:12.273Z,-0.90
2022-12-19T01:38:39.100Z,-0.90
2022-12-19T01:41:07.320Z,-0.90
2022-12-19T01:43:55.266Z,-0.80
2022-12-19T01:46:25.781Z,-0.90
2022-12-19T01:49:00.917Z,-0.80
2022-12-19T01:51:40.899Z,-0.80
2022-12-19T01:54:10.800Z,-0.80
2022-12-19T01:56:42.396Z,-0.80
2022-12-19T01:59:14.131Z,-0.80
2022-12-19T02:01:51.589Z,-0.70
2022-12-19T02:04:23.384Z,-0.60
2022-12-19T02:06:51.772Z,-0.60
2022-12-19T02:09:19.356Z,-0.50
2022-12-19T02:11:47.542Z,-0.50
2022-12-19T02:14:14.374Z,-0.40
2022-12-19T02:16:55.529Z,-0.40
2022-12-19T02:19:48.674Z,-0.30
2022-12-19T02:22:21.827Z,-0.30
2022-12-19T02:25:11.246Z,-0.30
2022-12-19T02:28:05.995Z,-0.20
2022-12-19T02:30:45.170Z,-0.20
2022-12-19T02:33:19.265Z,-0.20
2022-12-19T02:35:51.469Z,-0.10
2022-12-19T02:38:26.913Z,-0.10
2022-12-19T02:40:57.915Z,0.10
2022-12-19T02:43:30.678Z,0.10
2022-12-19T02:46:00.605Z,0.00
2022-12-19T02:48:29.418Z,0.10
2022-12-19T02:50:56.194Z,0.10
2022-12-19T02:53:23.938Z,0.30
2022-12-19T02:56:15.730Z,0.20
2022-12-19T02:58:55.817Z,0.10
2022-12-19T03:01:48.339Z,0.20
2022-12-19T03:04:24.325Z,0.30
2022-12-19T03:06:56.440Z,0.40
2022-12-19T03:09:32.496Z,0.40
2022-12-19T03:12:11.639Z,0.40
2022-12-19T03:14:42.275Z,0.30
2022-12-19T03:17:10.556Z,0.40
2022-12-19T03:19:39.896Z,0.40
2022-12-19T03:22:07.644Z,0.30
2022-12-19T03:24:34.474Z,0.30
2022-12-19T03:27:03.443Z,0.40
2022-12-19T03:29:31.454Z,0.40
2022-12-19T03:32:01.939Z,0.40
2022-12-19T03:34:34.850Z,0.50
2022-12-19T03:37:06.230Z,0.50
2022-12-19T03:39:40.818Z,0.60
2022-12-19T03:42:08.811Z,0.60
2022-12-19T03:44:39.483Z,0.80
2022-12-19T03:47:12.688Z,0.80
2022-12-19T03:49:41.085Z,0.90
2022-12-19T03:52:27.593Z,0.80
2022-12-19T03:55:01.520Z,0.80
2022-12-19T03:57:34.679Z,0.90
2022-12-19T04:00:05.200Z,0.90
2022-12-19T04:02:34.921Z,0.90
2022-12-19T04:05:11.417Z,0.90
2022-12-19T04:07:39.840Z,1.00
2022-12-19T04:10:10.894Z,1.00
2022-12-19T04:12:42.145Z,1.10
2022-12-19T04:15:09.938Z,1.10
2022-12-19T04:17:44.572Z,1.10
2022-12-19T04:20:15.281Z,1.20
2022-12-19T04:22:48.615Z,1.20
2022-12-19T04:25:19.447Z,1.30
2022-12-19T04:27:52.018Z,1.50
2022-12-19T04:30:20.603Z,1.50
2022-12-19T04:32:48.242Z,1.60
2022-12-19T04:35:19.723Z,1.60
2022-12-19T04:37:46.471Z,1.70
2022-12-19T04:40:14.011Z,1.80
2022-12-19T04:42:40.724Z,1.80
2022-12-19T04:45:08.203Z,1.80
2022-12-19T04:47:37.542Z,1.90
2022-12-19T04:50:05.050Z,1.90
2022-12-19T04:52:33.570Z,1.90
2022-12-19T04:55:00.312Z,1.90
2022-12-19T04:57:29.544Z,2.00
2022-12-19T04:59:56.303Z,2.10
2022-12-19T05:02:26.003Z,2.00
2022-12-19T05:04:52.910Z,2.10
2022-12-19T05:07:22.198Z,2.10
2022-12-19T05:09:51.477Z,2.10
2022-12-19T05:12:18.262Z,2.10
2022-12-19T05:14:49.112Z,2.20
2022-12-19T05:17:15.851Z,2.20
2022-12-19T05:19:45.308Z,2.20
2022-12-19T05:22:12.034Z,2.20
2022-12-19T05:24:38.865Z,2.30
2022-12-19T05:27:08.028Z,2.40
2022-12-19T05:29:34.754Z,2.40
2022-12-19T05:32:03.990Z,2.50
2022-12-19T05:34:33.049Z,2.50
2022-12-19T05:36:59.654Z,2.50
2022-12-19T05:39:33.151Z,2.50
2022-12-19T05:41:59.855Z,2.70
2022-12-19T05:44:30.599Z,2.70
2022-12-19T05:46:57.416Z,2.70
2022-12-19T05:49:24.197Z,2.80
2022-12-19T05:51:54.267Z,2.80
2022-12-19T05:54:25.819Z,2.80
2022-12-19T05:56:55.099Z,2.90
2022-12-19T05:59:21.878Z,3.00
2022-12-19T06:01:50.005Z,3.10
2022-12-19T06:04:16.786Z,3.10
2022-12-19T06:06:43.813Z,3.20
2022-12-19T06:09:15.995Z,3.20
2022-12-19T06:11:42.782Z,3.20
2022-12-19T06:14:09.842Z,3.20
2022-12-19T06:16:36.553Z,3.30
2022-12-19T06:19:04.663Z,3.30
2022-12-19T06:21:31.431Z,3.40
2022-12-19T06:23:58.166Z,3.50
2022-12-19T06:26:24.934Z,3.50
2022-12-19T06:28:52.904Z,3.60
2022-12-19T06:31:21.557Z,3.70
2022-12-19T06:33:48.345Z,3.70
2022-12-19T06:36:21.014Z,3.70
2022-12-19T06:38:48.095Z,3.80
2022-12-19T06:41:15.944Z,4.00
2022-12-19T06:43:43.164Z,4.20
2022-12-19T06:46:11.889Z,4.20
2022-12-19T06:48:38.699Z,4.20
2022-12-19T06:51:05.806Z,4.20
2022-12-19T06:53:34.500Z,4.00
2022-12-19T06:56:01.206Z,4.10
2022-12-19T06:58:30.704Z,4.00
2022-12-19T07:00:59.236Z,4.00
2022-12-19T07:03:30.987Z,4.10
2022-12-19T07:06:01.076Z,4.10
2022-12-19T07:08:27.950Z,4.10
2022-12-19T07:10:56.106Z,4.20
2022-12-19T07:13:22.948Z,4.20
2022-12-19T07:15:50.246Z,4.30
2022-12-19T07:18:17.160Z,4.20
2022-12-19T07:20:45.330Z,4.30
2022-12-19T07:23:16.799Z,4.30
2022-12-19T07:25:43.601Z,4.40
2022-12-19T07:28:11.792Z,4.40
2022-12-19T07:30:38.491Z,4.40
2022-12-19T07:33:05.195Z,4.60
2022-12-19T07:35:31.916Z,4.60
2022-12-19T07:38:02.319Z,4.60
2022-12-19T07:40:35.729Z,4.60
2022-12-19T07:43:07.664Z,4.70
2022-12-19T07:45:37.562Z,4.70
2022-12-19T07:48:05.940Z,4.80
2022-12-19T07:50:35.269Z,4.80
2022-12-19T07:53:02.050Z,4.90
2022-12-19T07:55:31.894Z,5.00
2022-12-19T07:57:59.509Z,5.00
2022-12-19T08:00:26.319Z,5.10
2022-12-19T08:02:54.535Z,5.10
2022-12-19T08:05:22.011Z,5.10
2022-12-19T08:07:48.690Z,5.10
2022-12-19T08:10:15.576Z,5.10
2022-12-19T08:12:42.522Z,5.00
2022-12-19T08:15:12.322Z,5.00
2022-12-19T08:17:39.248Z,5.10
2022-12-19T08:20:10.412Z,5.10
2022-12-19T08:22:40.390Z,5.00
2022-12-19T08:25:08.440Z,5.00
2022-12-19T08:27:35.519Z,5.10
2022-12-19T08:30:02.354Z,5.10
2022-12-19T08:32:29.223Z,5.30
2022-12-19T08:34:55.988Z,5.30
2022-12-19T08:37:26.858Z,5.20
2022-12-19T08:39:53.854Z,5.10
2022-12-19T08:42:20.570Z,5.20
2022-12-19T08:44:47.326Z,5.20
2022-12-19T08:47:16.929Z,5.20
2022-12-19T08:49:44.240Z,5.20
2022-12-19T08:52:10.992Z,5.20
2022-12-19T08:54:51.963Z,5.20
2022-12-19T08:57:18.727Z,5.20
2022-12-19T08:59:48.025Z,5.10
2022-12-19T09:02:15.942Z,5.20
2022-12-19T09:05:59.848Z,5.20
2022-12-19T09:07:29.688Z,5.20
2022-12-19T09:09:58.717Z,5.20
2022-12-19T09:12:25.304Z,5.20
2022-12-19T09:14:52.051Z,5.30
2022-12-19T09:17:19.370Z,5.20
2022-12-19T09:19:47.742Z,5.20
2022-12-19T09:22:15.452Z,5.20
2022-12-19T09:24:42.160Z,5.30
2022-12-19T09:27:10.235Z,5.20
2022-12-19T09:29:36.980Z,5.30
2022-12-19T09:32:03.851Z,5.30
2022-12-19T09:34:37.197Z,5.30
2022-12-19T09:37:05.139Z,5.40
2022-12-19T09:39:31.855Z,5.40
2022-12-19T09:42:24.003Z,5.50
2022-12-19T09:45:10.401Z,5.60
2022-12-19T09:47:44.271Z,5.60
2022-12-19T09:50:23.362Z,5.60
2022-12-19T09:52:57.495Z,5.70
2022-12-19T09:55:28.736Z,5.60
2022-12-19T09:58:05.704Z,5.70
2022-12-19T10:00:39.287Z,5.70
2022-12-19T10:03:18.289Z,5.80
2022-12-19T10:07:01.647Z,5.80
2022-12-19T10:08:45.343Z,5.80
2022-12-19T10:12:39.945Z,5.80
2022-12-19T10:14:40.716Z,5.80
2022-12-19T10:17:24.504Z,5.80
2022-12-19T10:20:10.891Z,5.80
2022-12-19T10:22:44.225Z,5.90
2022-12-19T10:25:27.901Z,6.00
2022-12-19T10:28:00.878Z,6.10
2022-12-19T10:30:31.906Z,6.20
2022-12-19T10:33:11.660Z,6.10
2022-12-19T10:35:48.376Z,6.20
2022-12-19T10:38:24.244Z,6.20
2022-12-19T10:41:00.582Z,6.20
2022-12-19T10:43:40.826Z,6.40
2022-12-19T10:46:16.128Z,6.40
2022-12-19T10:48:44.224Z,6.40
2022-12-19T10:51:13.823Z,6.30
2022-12-19T10:53:40.589Z,6.40
2022-12-19T10:56:20.369Z,6.30
2022-12-19T10:58:54.517Z,6.40
2022-12-19T11:01:26.331Z,6.40
2022-12-19T11:04:15.134Z,6.40
2022-12-19T11:06:50.016Z,6.40
2022-12-19T11:09:26.201Z,6.60
2022-12-19T11:15:25.820Z,6.50
2022-12-19T11:21:50.578Z,6.50
2022-12-19T11:29:16.787Z,6.50
2022-12-19T11:29:44.239Z,6.40
2022-12-19T11:30:25.643Z,6.30
2022-12-19T11:30:36.676Z,6.20
2022-12-19T11:32:44.754Z,6.30
2022-12-19T11:35:19.708Z,6.30
2022-12-19T11:37:55.493Z,6.40
2022-12-19T11:40:32.729Z,6.40
2022-12-19T11:43:42.526Z,6.40
2022-12-19T11:46:00.198Z,6.50
2022-12-19T11:48:36.959Z,6.40
2022-12-19T11:51:12.503Z,6.50
2022-12-19T11:53:49.414Z,6.50
2022-12-19T11:56:20.565Z,6.50
2022-12-19T11:58:50.469Z,6.50
2022-12-19T12:01:31.564Z,6.60
2022-12-19T12:04:11.528Z,6.50
2022-12-19T12:06:46.131Z,6.60
2022-12-19T12:12:29.946Z,6.60
2022-12-19T12:19:30.456Z,6.60
2022-12-19T12:29:34.059Z,6.70
2022-12-19T12:30:59.450Z,6.70
2022-12-19T12:31:04.641Z,6.80
2022-12-19T12:31:56.046Z,7.00
2022-12-19T12:31:56.859Z,6.90
2022-12-19T12:32:05.780Z,6.90
2022-12-19T12:35:32.826Z,7.00
2022-12-19T12:39:05.011Z,7.00
2022-12-19T12:41:42.395Z,7.10
2022-12-19T12:44:12.029Z,7.10
2022-12-19T12:46:42.870Z,7.30
2022-12-19T12:49:30.360Z,7.30
2022-12-19T12:52:01.725Z,7.40
2022-12-19T12:54:34.081Z,7.40
2022-12-19T12:57:02.801Z,7.40
2022-12-19T12:59:30.544Z,7.40
2022-12-19T13:01:59.830Z,7.40
2022-12-19T13:04:33.129Z,7.40
2022-12-19T13:07:18.793Z,7.50
2022-12-19T13:09:50.573Z,7.50
2022-12-19T13:12:24.163Z,7.50
2022-12-19T13:14:52.099Z,7.40
2022-12-19T13:17:24.599Z,7.50
2022-12-19T13:19:56.437Z,7.50
2022-12-19T13:22:40.436Z,7.50
2022-12-19T13:25:43.762Z,7.60
2022-12-19T13:28:31.216Z,7.50
2022-12-19T13:31:19.820Z,7.50
2022-12-19T13:34:17.270Z,7.50
2022-12-19T13:39:51.352Z,7.50
2022-12-19T13:39:59.029Z,7.40
2022-12-19T13:42:34.602Z,7.30
2022-12-19T13:45:08.016Z,7.20
2022-12-19T13:47:38.087Z,7.20
2022-12-19T13:50:14.590Z,7.20
2022-12-19T13:52:48.298Z,7.20
2022-12-19T13:55:14.988Z,7.10
2022-12-19T13:57:41.740Z,7.10
2022-12-19T14:00:17.693Z,7.10
2022-12-19T14:02:48.576Z,7.00
2022-12-19T14:05:30.613Z,7.00
2022-12-19T14:08:15.805Z,6.90
2022-12-19T14:11:29.863Z,7.00
2022-12-19T14:13:53.728Z,6.90
2022-12-19T14:16:43.955Z,7.00
2022-12-19T14:19:20.191Z,7.00
2022-12-19T14:22:07.140Z,6.90
2022-12-19T14:24:39.820Z,7.00
2022-12-19T14:28:18.955Z,7.00
2022-12-19T14:30:30.657Z,7.10
2022-12-19T14:33:47.104Z,7.00
2022-12-19T14:36:06.106Z,7.00
2022-12-19T14:39:20.765Z,7.00
2022-12-19T14:41:37.441Z,7.00
2022-12-19T14:53:08.625Z,7.10
2022-12-19T14:54:11.539Z,7.10
2022-12-19T14:54:14.921Z,7.10
2022-12-19T14:54:28.918Z,7.20
2022-12-19T14:56:11.597Z,7.30
2022-12-19T14:58:54.700Z,7.20
2022-12-19T15:01:23.306Z,7.20
2022-12-19T15:04:52.316Z,7.30
2022-12-19T15:07:07.176Z,7.30
2022-12-19T15:11:08.479Z,7.30
2022-12-19T15:14:20.646Z,7.30
2022-12-19T15:15:20.959Z,7.30
2022-12-19T15:17:49.479Z,7.30
2022-12-19T15:20:16.725Z,7.40
2022-12-19T15:22:45.121Z,7.30
2022-12-19T15:25:36.171Z,7.40
2022-12-19T15:28:01.287Z,7.40
2022-12-19T15:30:33.687Z,7.60
2022-12-19T15:33:05.112Z,7.60
2022-12-19T15:35:31.843Z,7.50
2022-12-19T15:38:02.988Z,7.60
2022-12-19T15:40:35.585Z,7.70
2022-12-19T15:43:03.512Z,7.70
2022-12-19T15:45:30.487Z,7.70
2022-12-19T15:47:57.277Z,7.70
2022-12-19T15:50:25.803Z,7.70
2022-12-19T15:52:58.496Z,7.70
2022-12-19T15:55:29.482Z,7.70
2022-12-19T15:58:00.113Z,7.70
2022-12-19T16:00:31.442Z,7.70
2022-12-19T16:03:22.457Z,7.60
2022-12-19T16:05:45.831Z,7.70
2022-12-19T16:08:14.216Z,7.70
2022-12-19T16:10:44.511Z,7.70
2022-12-19T16:13:18.177Z,7.70
2022-12-19T16:15:48.682Z,7.80
2022-12-19T16:18:15.967Z,7.80
2022-12-19T16:20:43.398Z,7.80
2022-12-19T16:23:11.517Z,7.80
2022-12-19T16:25:39.939Z,7.80
2022-12-19T16:28:15.348Z,7.80
2022-12-19T16:30:42.086Z,7.80
2022-12-19T16:33:18.762Z,7.80
2022-12-19T16:38:32.301Z,7.70
2022-12-19T16:40:59.091Z,7.80
2022-12-19T16:43:31.084Z,7.90
2022-12-19T16:46:01.137Z,7.70
2022-12-19T16:48:29.700Z,7.70
2022-12-19T16:50:58.008Z,7.70
2022-12-19T16:53:24.799Z,7.70
2022-12-19T16:55:51.868Z,7.70
2022-12-19T16:58:21.614Z,7.70
2022-12-19T17:00:52.733Z,7.70
2022-12-19T17:03:28.218Z,7.70
2022-12-19T17:05:55.608Z,7.80
2022-12-19T17:08:25.220Z,7.70
2022-12-19T17:10:53.122Z,7.70
2022-12-19T17:13:20.744Z,7.60
2022-12-19T17:15:56.032Z,7.60
2022-12-19T17:18:28.034Z,7.50
2022-12-19T17:20:54.819Z,7.50
2022-12-19T17:23:24.228Z,7.50
2022-12-19T17:25:51.373Z,7.60
2022-12-19T17:28:18.334Z,7.60
2022-12-19T17:30:51.662Z,7.60
2022-12-19T17:33:19.566Z,7.80
2022-12-19T17:35:46.773Z,7.70
2022-12-19T17:38:17.387Z,7.80
2022-12-19T17:40:46.853Z,7.80
2022-12-19T17:43:13.706Z,7.80
2022-12-19T17:45:41.231Z,7.70
2022-12-19T17:48:25.568Z,7.80
2022-12-19T17:50:52.444Z,7.70
2022-12-19T17:53:19.431Z,7.80
2022-12-19T17:55:46.593Z,7.80
2022-12-19T17:58:16.300Z,7.90
2022-12-19T18:00:46.266Z,7.80
2022-12-19T18:03:19.831Z,7.90
2022-12-19T18:05:50.120Z,7.90
2022-12-19T18:08:25.525Z,7.80
2022-12-19T18:10:52.539Z,7.80
2022-12-19T18:13:19.773Z,7.80
2022-12-19T18:15:46.678Z,7.80
2022-12-19T18:18:17.893Z,7.80
2022-12-19T18:20:46.424Z,7.80
2022-12-19T18:23:20.175Z,7.80
2022-12-19T18:25:47.593Z,7.90
2022-12-19T18:28:15.772Z,7.90
2022-12-19T18:30:43.551Z,7.90
2022-12-19T18:33:15.061Z,7.90
2022-12-19T18:35:44.399Z,8.10
2022-12-19T18:38:15.226Z,7.90
2022-12-19T18:40:42.555Z,7.80
2022-12-19T18:43:11.298Z,7.80
2022-12-19T18:45:40.246Z,7.90
2022-12-19T18:48:11.989Z,7.80
2022-12-19T18:50:39.939Z,7.90
2022-12-19T18:53:10.812Z,8.00
2022-12-19T18:55:39.106Z,8.00
2022-12-19T18:58:06.004Z,8.00
2022-12-19T19:00:33.639Z,7.90
2022-12-19T19:03:03.085Z,8.00
2022-12-19T19:05:32.336Z,7.90
2022-12-19T19:08:11.240Z,7.90
2022-12-19T19:10:41.759Z,8.00
2022-12-19T19:13:10.567Z,7.80
2022-12-19T19:15:40.119Z,7.90
2022-12-19T19:18:08.442Z,7.90
2022-12-19T19:20:38.587Z,7.80
2022-12-19T19:23:09.896Z,7.70
2022-12-19T19:25:36.928Z,7.70
2022-12-19T19:28:05.733Z,7.70
2022-12-19T19:30:35.600Z,7.60
2022-12-19T19:33:09.480Z,7.60
2022-12-19T19:35:36.605Z,7.60
2022-12-19T19:38:08.660Z,7.60
2022-12-19T19:40:36.141Z,7.60
2022-12-19T19:43:03.265Z,7.60
2022-12-19T19:45:31.350Z,7.60
2022-12-19T19:48:01.192Z,7.50
2022-12-19T19:50:28.101Z,7.40
2022-12-19T19:52:54.885Z,7.30
2022-12-19T19:55:21.612Z,7.30
2022-12-19T19:57:48.445Z,7.10
2022-12-19T20:00:15.795Z,7.10
2022-12-19T20:02:43.999Z,7.10
2022-12-19T20:05:14.050Z,7.10
2022-12-19T20:07:40.937Z,7.00
2022-12-19T20:10:09.539Z,6.80
2022-12-19T20:12:36.428Z,7.00
2022-12-19T20:15:04.481Z,7.20
2022-12-19T20:17:33.228Z,7.10
2022-12-19T20:20:01.381Z,7.20
2022-12-19T20:22:29.406Z,7.20
2022-12-19T20:24:56.150Z,7.20
2022-12-19T20:27:23.076Z,7.20
2022-12-19T20:29:49.808Z,7.10
2022-12-19T20:32:16.787Z,7.00
2022-12-19T20:34:45.679Z,7.00
2022-12-19T20:37:13.989Z,6.90
2022-12-19T20:39:40.919Z,6.90
2022-12-19T20:42:09.556Z,7.10
2022-12-19T20:44:38.612Z,7.10
2022-12-19T20:47:05.265Z,7.20
2022-12-19T20:49:32.254Z,7.30
2022-12-19T20:51:59.059Z,7.30
2022-12-19T20:54:28.981Z,7.20
2022-12-19T20:56:57.143Z,7.10
2022-12-19T20:59:23.863Z,7.10
2022-12-19T21:01:50.831Z,7.20
2022-12-19T21:04:17.861Z,7.30
2022-12-19T21:06:44.715Z,7.10
2022-12-19T21:09:11.456Z,7.20
2022-12-19T21:11:39.535Z,7.10
2022-12-19T21:14:06.514Z,7.10
2022-12-19T21:16:33.796Z,7.10
2022-12-19T21:19:00.596Z,7.10
2022-12-19T21:21:27.477Z,7.10
2022-12-19T21:23:54.957Z,7.20
2022-12-19T21:26:23.749Z,7.10
2022-12-19T21:28:52.409Z,7.10
2022-12-19T21:31:21.421Z,7.10
2022-12-19T21:33:48.140Z,7.00
2022-12-19T21:36:16.972Z,6.90
2022-12-19T21:38:45.113Z,7.00
2022-12-19T21:41:13.448Z,6.90
2022-12-19T21:43:40.350Z,6.90
2022-12-19T21:46:16.713Z,6.90
2022-12-19T21:48:45.629Z,7.00
2022-12-19T21:51:13.699Z,6.80
2022-12-19T21:53:42.152Z,7.00
2022-12-19T21:56:21.716Z,6.90
2022-12-19T21:58:52.143Z,6.80
2022-12-19T22:01:20.737Z,7.00
2022-12-19T22:03:48.338Z,7.10
2022-12-19T22:06:19.963Z,7.00
2022-12-19T22:08:52.361Z,7.10
2022-12-19T22:11:21.056Z,7.20
2022-12-19T22:13:48.751Z,7.20
2022-12-19T22:16:15.720Z,7.40
2022-12-19T22:18:44.250Z,7.40
2022-12-19T22:21:12.795Z,7.40
2022-12-19T22:23:40.029Z,7.40
2022-12-19T22:26:12.424Z,7.50
2022-12-19T22:28:41.281Z,7.50
2022-12-19T22:31:15.743Z,7.50
2022-12-19T22:33:44.282Z,7.50
2022-12-19T22:36:15.218Z,7.60
2022-12-19T22:38:43.374Z,7.70
2022-12-19T22:41:10.346Z,7.70
2022-12-19T22:43:37.603Z,7.60
2022-12-19T22:46:10.676Z,7.70
2022-12-19T22:48:37.798Z,7.80
2022-12-19T22:51:06.523Z,7.90
2022-12-19T22:53:33.788Z,7.90
2022-12-19T22:56:01.147Z,7.90
2022-12-19T22:58:28.990Z,7.80
2022-12-19T23:00:55.680Z,7.90
2022-12-19T23:03:22.683Z,8.00
2022-12-19T23:05:52.104Z,8.00
2022-12-19T23:08:20.410Z,7.80
2022-12-19T23:10:50.624Z,7.70
2022-12-19T23:13:17.383Z,7.70
2022-12-19T23:15:44.262Z,7.70
2022-12-19T23:18:10.984Z,7.70
2022-12-19T23:20:38.304Z,7.70
2022-12-19T23:23:05.210Z,7.60
2022-12-19T23:25:39.928Z,7.70
2022-12-19T23:28:09.698Z,7.90
2022-12-19T23:30:36.852Z,7.80
2022-12-19T23:33:03.741Z,7.80
2022-12-19T23:35:32.284Z,7.80
2022-12-19T23:38:05.479Z,7.80
2022-12-19T23:40:34.007Z,8.00
2022-12-19T23:43:03.170Z,7.80
2022-12-19T23:45:30.222Z,7.70
2022-12-19T23:47:56.988Z,8.00
2022-12-19T23:50:23.681Z,8.00
2022-12-19T23:52:50.403Z,7.90
2022-12-19T23:55:17.217Z,8.10
2022-12-19T23:57:45.323Z,8.10
